sensor_id;sensor_type;location;lat;lon;timestamp;pressure;altitude;pressure_sealevel;temperature;humidity
34925;BME280;21130;51.728;8.748;2023-01-30T00:00:49;100551.94;;;1.64;100.00
34925;BME280;21130;51.728;8.748;2023-01-30T00:03:16;100546.47;;;1.64;100.00
34925;BME280;21130;51.728;8.748;2023-01-30T00:05:42;100532.44;;;1.67;100.00
34925;BME280;21130;51.728;8.748;2023-01-30T00:08:12;100523.00;;;1.69;100.00
34925;BME280;21130;51.728;8.748;2023-01-30T00:10:38;100534.78;;;1.70;100.00
34925;BME280;21130;51.728;8.748;2023-01-30T00:13:05;100506.75;;;1.68;100.00
34925;BME280;21130;51.728;8.748;2023-01-30T00:15:31;100493.94;;;1.68;100.00
34925;BME280;21130;51.728;8.748;2023-01-30T00:17:58;100474.81;;;1.68;100.00
34925;BME280;21130;51.728;8.748;2023-01-30T00:20:24;100463.84;;;1.68;100.00
34925;BME280;21130;51.728;8.748;2023-01-30T00:22:51;100488.47;;;1.68;100.00
34925;BME280;21130;51.728;8.748;2023-01-30T00:25:18;100499.03;;;1.71;100.00
34925;BME280;21130;51.728;8.748;2023-01-30T00:27:45;100497.81;;;1.74;100.00
34925;BME280;21130;51.728;8.748;2023-01-30T00:30:12;100507.03;;;1.73;100.00
34925;BME280;21130;51.728;8.748;2023-01-30T00:32:38;100514.41;;;1.72;100.00
34925;BME280;21130;51.728;8.748;2023-01-30T00:35:07;100500.38;;;1.76;100.00
34925;BME280;21130;51.728;8.748;2023-01-30T00:37:34;100502.44;;;1.73;100.00
34925;BME280;21130;51.728;8.748;2023-01-30T00:40:01;100508.75;;;1.74;100.00
34925;BME280;21130;51.728;8.748;2023-01-30T00:42:29;100491.28;;;1.75;100.00
34925;BME280;21130;51.728;8.748;2023-01-30T00:45:14;100482.72;;;1.78;100.00
34925;BME280;21130;51.728;8.748;2023-01-30T00:47:58;100480.63;;;1.80;100.00
34925;BME280;21130;51.728;8.748;2023-01-30T00:50:25;100471.41;;;1.81;100.00
34925;BME280;21130;51.728;8.748;2023-01-30T00:53:07;100456.00;;;1.80;100.00
34925;BME280;21130;51.728;8.748;2023-01-30T00:55:33;100448.47;;;1.82;100.00
34925;BME280;21130;51.728;8.748;2023-01-30T00:58:01;100448.84;;;1.79;100.00
34925;BME280;21130;51.728;8.748;2023-01-30T01:00:27;100439.41;;;1.82;100.00
34925;BME280;21130;51.728;8.748;2023-01-30T01:02:54;100433.75;;;1.83;100.00
34925;BME280;21130;51.728;8.748;2023-01-30T01:05:20;100444.31;;;1.86;100.00
34925;BME280;21130;51.728;8.748;2023-01-30T01:07:47;100423.44;;;1.85;100.00
34925;BME280;21130;51.728;8.748;2023-01-30T01:10:13;100410.63;;;1.86;100.00
34925;BME280;21130;51.728;8.748;2023-01-30T01:12:40;100423.09;;;1.88;100.00
34925;BME280;21130;51.728;8.748;2023-01-30T01:15:09;100424.78;;;1.89;100.00
34925;BME280;21130;51.728;8.748;2023-01-30T01:17:37;100416.75;;;1.88;100.00
34925;BME280;21130;51.728;8.748;2023-01-30T01:20:04;100418.47;;;1.89;100.00
34925;BME280;21130;51.728;8.748;2023-01-30T01:22:31;100421.00;;;1.90;100.00
34925;BME280;21130;51.728;8.748;2023-01-30T01:24:57;100403.34;;;1.93;100.00
34925;BME280;21130;51.728;8.748;2023-01-30T01:27:24;100385.50;;;1.97;100.00
34925;BME280;21130;51.728;8.748;2023-01-30T01:29:50;100376.91;;;2.00;100.00
34925;BME280;21130;51.728;8.748;2023-01-30T01:32:19;100374.16;;;2.00;100.00
34925;BME280;21130;51.728;8.748;2023-01-30T01:34:45;100366.81;;;2.01;100.00
34925;BME280;21130;51.728;8.748;2023-01-30T01:37:11;100362.19;;;2.01;100.00
34925;BME280;21130;51.728;8.748;2023-01-30T01:39:38;100345.94;;;2.00;100.00
34925;BME280;21130;51.728;8.748;2023-01-30T01:42:24;100335.66;;;2.02;100.00
34925;BME280;21130;51.728;8.748;2023-01-30T01:45:03;100327.28;;;2.03;100.00
34925;BME280;21130;51.728;8.748;2023-01-30T01:47:34;100328.78;;;2.06;100.00
34925;BME280;21130;51.728;8.748;2023-01-30T01:50:01;100330.00;;;2.03;100.00
34925;BME280;21130;51.728;8.748;2023-01-30T01:52:28;100327.28;;;2.03;100.00
34925;BME280;21130;51.728;8.748;2023-01-30T01:54:57;100321.78;;;2.03;100.00
34925;BME280;21130;51.728;8.748;2023-01-30T01:57:30;100314.03;;;2.07;100.00
34925;BME280;21130;51.728;8.748;2023-01-30T02:00:02;100319.25;;;2.02;100.00
34925;BME280;21130;51.728;8.748;2023-01-30T02:02:30;100321.19;;;2.08;100.00
34925;BME280;21130;51.728;8.748;2023-01-30T02:04:58;100313.63;;;2.10;100.00
34925;BME280;21130;51.728;8.748;2023-01-30T02:07:33;100300.22;;;2.15;100.00
34925;BME280;21130;51.728;8.748;2023-01-30T02:10:01;100297.47;;;2.15;100.00
34925;BME280;21130;51.728;8.748;2023-01-30T02:12:28;100291.59;;;2.18;100.00
34925;BME280;21130;51.728;8.748;2023-01-30T02:14:56;100279.41;;;2.21;100.00
34925;BME280;21130;51.728;8.748;2023-01-30T02:17:23;100272.69;;;2.23;100.00
34925;BME280;21130;51.728;8.748;2023-01-30T02:19:54;100263.06;;;2.27;100.00
34925;BME280;21130;51.728;8.748;2023-01-30T02:22:53;100270.44;;;2.27;100.00
34925;BME280;21130;51.728;8.748;2023-01-30T02:25:47;100255.50;;;2.29;100.00
34925;BME280;21130;51.728;8.748;2023-01-30T02:28:33;100255.09;;;2.32;100.00
34925;BME280;21130;51.728;8.748;2023-01-30T02:31:19;100245.44;;;2.36;100.00
34925;BME280;21130;51.728;8.748;2023-01-30T02:33:59;100237.66;;;2.40;100.00
34925;BME280;21130;51.728;8.748;2023-01-30T02:36:38;100239.56;;;2.40;100.00
34925;BME280;21130;51.728;8.748;2023-01-30T02:39:17;100233.69;;;2.43;100.00
34925;BME280;21130;51.728;8.748;2023-01-30T02:41:51;100230.28;;;2.41;100.00
34925;BME280;21130;51.728;8.748;2023-01-30T02:44:25;100211.59;;;2.44;100.00
34925;BME280;21130;51.728;8.748;2023-01-30T02:46:57;100218.56;;;2.47;100.00
34925;BME280;21130;51.728;8.748;2023-01-30T02:49:29;100208.91;;;2.51;100.00
34925;BME280;21130;51.728;8.748;2023-01-30T02:51:59;100224.94;;;2.54;100.00
34925;BME280;21130;51.728;8.748;2023-01-30T02:54:27;100218.41;;;2.55;100.00
34925;BME280;21130;51.728;8.748;2023-01-30T02:56:57;100201.78;;;2.56;100.00
34925;BME280;21130;51.728;8.748;2023-01-30T02:59:26;100224.59;;;2.64;100.00
34925;BME280;21130;51.728;8.748;2023-01-30T03:05:25;100204.78;;;2.68;100.00
34925;BME280;21130;51.728;8.748;2023-01-30T03:08:06;100209.25;;;2.69;100.00
34925;BME280;21130;51.728;8.748;2023-01-30T03:10:37;100193.44;;;2.71;100.00
34925;BME280;21130;51.728;8.748;2023-01-30T03:13:10;100175.09;;;2.72;100.00
34925;BME280;21130;51.728;8.748;2023-01-30T03:15:43;100183.97;;;2.74;100.00
34925;BME280;21130;51.728;8.748;2023-01-30T03:18:13;100183.75;;;2.75;100.00
34925;BME280;21130;51.728;8.748;2023-01-30T03:20:41;100163.31;;;2.78;100.00
34925;BME280;21130;51.728;8.748;2023-01-30T03:23:08;100154.91;;;2.79;100.00
34925;BME280;21130;51.728;8.748;2023-01-30T03:25:36;100142.28;;;2.78;100.00
34925;BME280;21130;51.728;8.748;2023-01-30T03:28:03;100148.59;;;2.79;100.00
34925;BME280;21130;51.728;8.748;2023-01-30T03:30:31;100153.47;;;2.84;100.00
34925;BME280;21130;51.728;8.748;2023-01-30T03:32:58;100145.03;;;2.85;100.00
34925;BME280;21130;51.728;8.748;2023-01-30T03:35:24;100135.53;;;2.88;100.00
34925;BME280;21130;51.728;8.748;2023-01-30T03:37:52;100135.13;;;2.91;100.00
34925;BME280;21130;51.728;8.748;2023-01-30T03:40:18;100147.81;;;2.92;100.00
34925;BME280;21130;51.728;8.748;2023-01-30T03:42:45;100138.09;;;2.96;100.00
34925;BME280;21130;51.728;8.748;2023-01-30T03:45:12;100141.50;;;2.98;100.00
34925;BME280;21130;51.728;8.748;2023-01-30T03:47:39;100130.16;;;3.01;100.00
34925;BME280;21130;51.728;8.748;2023-01-30T03:50:06;100142.59;;;3.03;100.00
34925;BME280;21130;51.728;8.748;2023-01-30T03:52:33;100124.25;;;3.04;100.00
34925;BME280;21130;51.728;8.748;2023-01-30T03:55:01;100117.69;;;3.05;100.00
34925;BME280;21130;51.728;8.748;2023-01-30T03:57:28;100102.53;;;3.09;100.00
34925;BME280;21130;51.728;8.748;2023-01-30T03:59:55;100131.88;;;3.15;100.00
34925;BME280;21130;51.728;8.748;2023-01-30T04:02:21;100113.50;;;3.16;100.00
34925;BME280;21130;51.728;8.748;2023-01-30T04:04:50;100118.78;;;3.17;100.00
34925;BME280;21130;51.728;8.748;2023-01-30T04:07:17;100103.00;;;3.19;100.00
34925;BME280;21130;51.728;8.748;2023-01-30T04:09:44;100083.38;;;3.22;100.00
34925;BME280;21130;51.728;8.748;2023-01-30T04:12:12;100093.28;;;3.23;100.00
34925;BME280;21130;51.728;8.748;2023-01-30T04:14:38;100101.94;;;3.20;100.00
34925;BME280;21130;51.728;8.748;2023-01-30T04:17:04;100084.44;;;3.21;100.00
34925;BME280;21130;51.728;8.748;2023-01-30T04:19:31;100081.69;;;3.21;100.00
34925;BME280;21130;51.728;8.748;2023-01-30T04:21:58;100085.06;;;3.23;100.00
34925;BME280;21130;51.728;8.748;2023-01-30T04:24:24;100085.69;;;3.25;100.00
34925;BME280;21130;51.728;8.748;2023-01-30T04:26:50;100080.22;;;3.25;100.00
34925;BME280;21130;51.728;8.748;2023-01-30T04:29:18;100084.22;;;3.30;100.00
34925;BME280;21130;51.728;8.748;2023-01-30T04:31:45;100071.59;;;3.29;100.00
34925;BME280;21130;51.728;8.748;2023-01-30T04:34:11;100071.97;;;3.25;100.00
34925;BME280;21130;51.728;8.748;2023-01-30T04:36:38;100067.97;;;3.21;100.00
34925;BME280;21130;51.728;8.748;2023-01-30T04:39:04;100090.53;;;3.23;100.00
34925;BME280;21130;51.728;8.748;2023-01-30T04:41:30;100073.88;;;3.25;100.00
34925;BME280;21130;51.728;8.748;2023-01-30T04:43:57;100054.28;;;3.21;100.00
34925;BME280;21130;51.728;8.748;2023-01-30T04:46:25;100077.25;;;3.20;100.00
34925;BME280;21130;51.728;8.748;2023-01-30T04:48:52;100085.47;;;3.20;100.00
34925;BME280;21130;51.728;8.748;2023-01-30T04:51:19;100073.84;;;3.18;100.00
34925;BME280;21130;51.728;8.748;2023-01-30T04:53:45;100073.84;;;3.18;100.00
34925;BME280;21130;51.728;8.748;2023-01-30T04:56:12;100045.59;;;3.18;100.00
34925;BME280;21130;51.728;8.748;2023-01-30T04:58:38;100045.81;;;3.16;100.00
34925;BME280;21130;51.728;8.748;2023-01-30T05:01:12;100050.88;;;3.19;100.00
34925;BME280;21130;51.728;8.748;2023-01-30T05:03:41;100065.44;;;3.20;100.00
34925;BME280;21130;51.728;8.748;2023-01-30T05:06:07;100057.22;;;3.20;100.00
34925;BME280;21130;51.728;8.748;2023-01-30T05:08:33;100055.53;;;3.19;100.00
34925;BME280;21130;51.728;8.748;2023-01-30T05:11:00;100064.59;;;3.19;100.00
34925;BME280;21130;51.728;8.748;2023-01-30T05:13:26;100053.63;;;3.19;100.00
34925;BME280;21130;51.728;8.748;2023-01-30T05:15:53;100056.16;;;3.21;100.00
34925;BME280;21130;51.728;8.748;2023-01-30T05:18:19;100058.88;;;3.21;100.00
34925;BME280;21130;51.728;8.748;2023-01-30T05:20:47;100059.75;;;3.21;100.00
34925;BME280;21130;51.728;8.748;2023-01-30T05:23:13;100051.53;;;3.21;100.00
34925;BME280;21130;51.728;8.748;2023-01-30T05:25:40;100045.81;;;3.23;100.00
34925;BME280;21130;51.728;8.748;2023-01-30T05:28:06;100047.72;;;3.22;100.00
34925;BME280;21130;51.728;8.748;2023-01-30T05:30:32;100041.81;;;3.25;100.00
34925;BME280;21130;51.728;8.748;2023-01-30T05:32:59;100033.38;;;3.27;100.00
34925;BME280;21130;51.728;8.748;2023-01-30T05:35:25;100029.38;;;3.30;100.00
34925;BME280;21130;51.728;8.748;2023-01-30T05:37:53;100038.69;;;3.29;100.00
34925;BME280;21130;51.728;8.748;2023-01-30T05:40:19;100032.97;;;3.30;100.00
34925;BME280;21130;51.728;8.748;2023-01-30T05:42:46;100041.19;;;3.30;100.00
34925;BME280;21130;51.728;8.748;2023-01-30T05:45:12;100028.75;;;3.34;100.00
34925;BME280;21130;51.728;8.748;2023-01-30T05:47:39;100031.69;;;3.33;100.00
34925;BME280;21130;51.728;8.748;2023-01-30T05:50:06;100036.75;;;3.36;100.00
34925;BME280;21130;51.728;8.748;2023-01-30T05:52:32;100038.47;;;3.37;100.00
34925;BME280;21130;51.728;8.748;2023-01-30T05:55:01;100031.28;;;3.36;100.00
34925;BME280;21130;51.728;8.748;2023-01-30T05:57:28;100032.16;;;3.36;100.00
34925;BME280;21130;51.728;8.748;2023-01-30T05:59:54;100037.19;;;3.39;100.00
34925;BME280;21130;51.728;8.748;2023-01-30T06:02:20;100032.56;;;3.40;100.00
34925;BME280;21130;51.728;8.748;2023-01-30T06:04:47;100030.88;;;3.39;100.00
34925;BME280;21130;51.728;8.748;2023-01-30T06:07:13;100035.31;;;3.40;100.00
34925;BME280;21130;51.728;8.748;2023-01-30T06:09:40;100023.06;;;3.42;100.00
34925;BME280;21130;51.728;8.748;2023-01-30T06:12:07;100040.16;;;3.44;100.00
34925;BME280;21130;51.728;8.748;2023-01-30T06:14:34;100034.69;;;3.44;100.00
34925;BME280;21130;51.728;8.748;2023-01-30T06:17:00;100033.19;;;3.49;100.00
34925;BME280;21130;51.728;8.748;2023-01-30T06:19:27;100040.56;;;3.48;100.00
34925;BME280;21130;51.728;8.748;2023-01-30T06:21:53;100032.56;;;3.53;100.00
34925;BME280;21130;51.728;8.748;2023-01-30T06:24:20;100035.09;;;3.55;100.00
34925;BME280;21130;51.728;8.748;2023-01-30T06:26:46;100041.44;;;3.62;100.00
34925;BME280;21130;51.728;8.748;2023-01-30T06:29:14;100042.28;;;3.62;100.00
34925;BME280;21130;51.728;8.748;2023-01-30T06:31:40;100047.56;;;3.64;100.00
34925;BME280;21130;51.728;8.748;2023-01-30T06:34:07;100040.81;;;3.66;100.00
34925;BME280;21130;51.728;8.748;2023-01-30T06:36:33;100035.94;;;3.68;100.00
34925;BME280;21130;51.728;8.748;2023-01-30T06:38:59;100058.75;;;3.69;100.00
34925;BME280;21130;51.728;8.748;2023-01-30T06:41:26;100066.34;;;3.67;100.00
34925;BME280;21130;51.728;8.748;2023-01-30T06:43:52;100077.09;;;3.68;100.00
34925;BME280;21130;51.728;8.748;2023-01-30T06:46:21;100071.81;;;3.74;100.00
34925;BME280;21130;51.728;8.748;2023-01-30T06:48:47;100089.34;;;3.73;100.00
34925;BME280;21130;51.728;8.748;2023-01-30T06:51:14;100073.75;;;3.66;100.00
34925;BME280;21130;51.728;8.748;2023-01-30T06:53:40;100075.19;;;3.62;100.00
34925;BME280;21130;51.728;8.748;2023-01-30T06:56:07;100091.25;;;3.59;100.00
34925;BME280;21130;51.728;8.748;2023-01-30T06:58:33;100084.69;;;3.60;100.00
34925;BME280;21130;51.728;8.748;2023-01-30T07:01:20;100062.09;;;3.58;100.00
34925;BME280;21130;51.728;8.748;2023-01-30T07:04:05;100077.31;;;3.60;100.00
34925;BME280;21130;51.728;8.748;2023-01-30T07:06:32;100091.47;;;3.57;100.00
34925;BME280;21130;51.728;8.748;2023-01-30T07:08:58;100088.72;;;3.57;100.00
34925;BME280;21130;51.728;8.748;2023-01-30T07:11:25;100099.28;;;3.54;100.00
34925;BME280;21130;51.728;8.748;2023-01-30T07:13:51;100086.38;;;3.47;100.00
34925;BME280;21130;51.728;8.748;2023-01-30T07:16:17;100078.13;;;3.41;100.00
34925;BME280;21130;51.728;8.748;2023-01-30T07:18:45;100073.28;;;3.43;100.00
34925;BME280;21130;51.728;8.748;2023-01-30T07:21:11;100064.84;;;3.44;100.00
34925;BME280;21130;51.728;8.748;2023-01-30T07:23:38;100070.09;;;3.46;100.00
34925;BME280;21130;51.728;8.748;2023-01-30T07:26:05;100074.97;;;3.37;100.00
34925;BME280;21130;51.728;8.748;2023-01-30T07:28:31;100080.22;;;3.19;100.00
34925;BME280;21130;51.728;8.748;2023-01-30T07:30:58;100075.97;;;3.10;100.00
34925;BME280;21130;51.728;8.748;2023-01-30T07:33:24;100077.41;;;2.99;100.00
34925;BME280;21130;51.728;8.748;2023-01-30T07:35:52;100082.03;;;2.92;100.00
34925;BME280;21130;51.728;8.748;2023-01-30T07:38:19;100072.09;;;2.84;100.00
34925;BME280;21130;51.728;8.748;2023-01-30T07:40:45;100067.03;;;2.81;100.00
34925;BME280;21130;51.728;8.748;2023-01-30T07:43:12;100079.63;;;2.75;100.00
34925;BME280;21130;51.728;8.748;2023-01-30T07:45:40;100085.94;;;2.69;100.00
34925;BME280;21130;51.728;8.748;2023-01-30T07:48:08;100082.13;;;2.70;100.00
34925;BME280;21130;51.728;8.748;2023-01-30T07:50:35;100079.41;;;2.70;100.00
34925;BME280;21130;51.728;8.748;2023-01-30T07:53:05;100079.84;;;2.74;100.00
34925;BME280;21130;51.728;8.748;2023-01-30T07:55:31;100081.09;;;2.78;100.00
34925;BME280;21130;51.728;8.748;2023-01-30T07:57:58;100054.81;;;2.84;100.00
34925;BME280;21130;51.728;8.748;2023-01-30T08:00:25;100088.31;;;2.86;100.00
34925;BME280;21130;51.728;8.748;2023-01-30T08:02:51;100097.81;;;2.90;100.00
34925;BME280;21130;51.728;8.748;2023-01-30T08:05:18;100106.09;;;2.96;100.00
34925;BME280;21130;51.728;8.748;2023-01-30T08:07:45;100103.13;;;2.98;100.00
34925;BME280;21130;51.728;8.748;2023-01-30T08:10:14;100120.22;;;3.00;100.00
34925;BME280;21130;51.728;8.748;2023-01-30T08:12:40;100092.78;;;3.00;100.00
34925;BME280;21130;51.728;8.748;2023-01-30T08:15:07;100096.38;;;3.00;100.00
34925;BME280;21130;51.728;8.748;2023-01-30T08:17:34;100104.22;;;3.03;100.00
34925;BME280;21130;51.728;8.748;2023-01-30T08:20:01;100111.78;;;3.08;100.00
34925;BME280;21130;51.728;8.748;2023-01-30T08:22:27;100109.50;;;3.12;100.00
34925;BME280;21130;51.728;8.748;2023-01-30T08:24:54;100110.34;;;3.12;100.00
34925;BME280;21130;51.728;8.748;2023-01-30T08:27:21;100115.00;;;3.18;100.00
34925;BME280;21130;51.728;8.748;2023-01-30T08:29:48;100115.44;;;3.22;100.00
34925;BME280;21130;51.728;8.748;2023-01-30T08:32:14;100125.16;;;3.24;100.00
34925;BME280;21130;51.728;8.748;2023-01-30T08:34:40;100125.56;;;3.21;100.00
34925;BME280;21130;51.728;8.748;2023-01-30T08:37:07;100113.53;;;3.22;100.00
34925;BME280;21130;51.728;8.748;2023-01-30T08:39:33;100108.47;;;3.19;100.00
34925;BME280;21130;51.728;8.748;2023-01-30T08:42:00;100111.63;;;3.23;100.00
34925;BME280;21130;51.728;8.748;2023-01-30T08:44:27;100109.19;;;3.55;100.00
34925;BME280;21130;51.728;8.748;2023-01-30T08:46:54;100109.22;;;3.95;100.00
34925;BME280;21130;51.728;8.748;2023-01-30T08:49:20;100100.06;;;4.41;100.00
34925;BME280;21130;51.728;8.748;2023-01-30T08:51:47;100114.97;;;4.78;100.00
34925;BME280;21130;51.728;8.748;2023-01-30T08:54:13;100111.94;;;5.00;100.00
34925;BME280;21130;51.728;8.748;2023-01-30T08:56:40;100117.22;;;5.01;100.00
34925;BME280;21130;51.728;8.748;2023-01-30T08:59:06;100119.88;;;5.21;100.00
34925;BME280;21130;51.728;8.748;2023-01-30T09:01:34;100115.44;;;5.20;100.00
34925;BME280;21130;51.728;8.748;2023-01-30T09:04:02;100110.31;;;4.85;100.00
34925;BME280;21130;51.728;8.748;2023-01-30T09:06:28;100098.22;;;4.86;100.00
34925;BME280;21130;51.728;8.748;2023-01-30T09:08:58;100104.06;;;5.10;100.00
34925;BME280;21130;51.728;8.748;2023-01-30T09:11:24;100086.66;;;5.23;100.00
34925;BME280;21130;51.728;8.748;2023-01-30T09:13:51;100102.47;;;5.66;100.00
34925;BME280;21130;51.728;8.748;2023-01-30T09:16:17;100093.44;;;5.20;100.00
34925;BME280;21130;51.728;8.748;2023-01-30T09:18:45;100100.59;;;4.83;100.00
34925;BME280;21130;51.728;8.748;2023-01-30T09:21:12;100124.78;;;4.54;100.00
34925;BME280;21130;51.728;8.748;2023-01-30T09:23:38;100116.09;;;4.57;100.00
34925;BME280;21130;51.728;8.748;2023-01-30T09:26:05;100116.94;;;4.51;100.00
34925;BME280;21130;51.728;8.748;2023-01-30T09:28:32;100112.72;;;4.48;100.00
34925;BME280;21130;51.728;8.748;2023-01-30T09:30:59;100123.09;;;4.46;100.00
34925;BME280;21130;51.728;8.748;2023-01-30T09:33:26;100114.00;;;4.46;100.00
34925;BME280;21130;51.728;8.748;2023-01-30T09:35:54;100115.28;;;4.50;100.00
34925;BME280;21130;51.728;8.748;2023-01-30T09:38:21;100114.00;;;4.52;100.00
34925;BME280;21130;51.728;8.748;2023-01-30T09:40:56;100115.69;;;4.53;100.00
34925;BME280;21130;51.728;8.748;2023-01-30T09:43:46;100114.63;;;4.54;100.00
34925;BME280;21130;51.728;8.748;2023-01-30T09:46:26;100122.88;;;4.54;100.00
34925;BME280;21130;51.728;8.748;2023-01-30T09:49:02;100116.53;;;4.54;100.00
34925;BME280;21130;51.728;8.748;2023-01-30T09:51:40;100121.59;;;4.50;100.00
34925;BME280;21130;51.728;8.748;2023-01-30T09:54:22;100123.09;;;4.53;100.00
34925;BME280;21130;51.728;8.748;2023-01-30T09:56:57;100129.00;;;4.50;100.00
34925;BME280;21130;51.728;8.748;2023-01-30T09:59:31;100127.09;;;4.50;100.00
34925;BME280;21130;51.728;8.748;2023-01-30T10:02:05;100129.41;;;4.53;100.00
34925;BME280;21130;51.728;8.748;2023-01-30T10:04:42;100134.72;;;4.55;100.00
34925;BME280;21130;51.728;8.748;2023-01-30T10:07:16;100133.22;;;4.52;100.00
34925;BME280;21130;51.728;8.748;2023-01-30T10:09:54;100137.25;;;4.57;100.00
34925;BME280;21130;51.728;8.748;2023-01-30T10:12:34;100130.69;;;4.58;100.00
34925;BME280;21130;51.728;8.748;2023-01-30T10:15:33;100129.00;;;4.57;100.00
34925;BME280;21130;51.728;8.748;2023-01-30T10:18:15;100131.97;;;4.55;100.00
34925;BME280;21130;51.728;8.748;2023-01-30T10:20:48;100132.38;;;4.59;100.00
34925;BME280;21130;51.728;8.748;2023-01-30T10:23:41;100141.47;;;4.59;100.00
34925;BME280;21130;51.728;8.748;2023-01-30T10:26:13;100131.31;;;4.60;100.00
34925;BME280;21130;51.728;8.748;2023-01-30T10:28:43;100137.47;;;4.62;100.00
34925;BME280;21130;51.728;8.748;2023-01-30T10:31:15;100136.81;;;4.60;100.00
34925;BME280;21130;51.728;8.748;2023-01-30T10:33:43;100145.91;;;4.60;100.00
34925;BME280;21130;51.728;8.748;2023-01-30T10:36:19;100134.28;;;4.65;100.00
34925;BME280;21130;51.728;8.748;2023-01-30T10:38:51;100129.81;;;4.64;100.00
34925;BME280;21130;51.728;8.748;2023-01-30T10:41:21;100118.41;;;4.67;100.00
34925;BME280;21130;51.728;8.748;2023-01-30T10:43:57;100127.47;;;4.74;100.00
34925;BME280;21130;51.728;8.748;2023-01-30T10:46:36;100111.59;;;4.76;100.00
34925;BME280;21130;51.728;8.748;2023-01-30T10:49:10;100106.91;;;4.83;100.00
34925;BME280;21130;51.728;8.748;2023-01-30T10:51:45;100121.50;;;4.90;100.00
34925;BME280;21130;51.728;8.748;2023-01-30T10:54:19;100118.94;;;4.95;100.00
34925;BME280;21130;51.728;8.748;2023-01-30T10:56:51;100123.59;;;5.02;100.00
34925;BME280;21130;51.728;8.748;2023-01-30T10:59:23;100119.28;;;5.12;100.00
34925;BME280;21130;51.728;8.748;2023-01-30T11:01:57;100130.06;;;5.14;100.00
34925;BME280;21130;51.728;8.748;2023-01-30T11:04:29;100133.88;;;5.13;100.00
34925;BME280;21130;51.728;8.748;2023-01-30T11:06:57;100126.94;;;5.04;100.00
34925;BME280;21130;51.728;8.748;2023-01-30T11:09:38;100144.75;;;4.94;100.00
34925;BME280;21130;51.728;8.748;2023-01-30T11:12:05;100162.97;;;4.82;100.00
34925;BME280;21130;51.728;8.748;2023-01-30T11:14:54;100139.31;;;4.68;100.00
34925;BME280;21130;51.728;8.748;2023-01-30T11:17:29;100142.06;;;4.68;100.00
34925;BME280;21130;51.728;8.748;2023-01-30T11:20:03;100131.28;;;4.66;100.00
34925;BME280;21130;51.728;8.748;2023-01-30T11:22:32;100112.69;;;4.68;100.00
34925;BME280;21130;51.728;8.748;2023-01-30T11:25:04;100092.78;;;4.73;100.00
34925;BME280;21130;51.728;8.748;2023-01-30T11:27:34;100114.78;;;4.80;100.00
34925;BME280;21130;51.728;8.748;2023-01-30T11:30:04;100119.38;;;4.92;100.00
34925;BME280;21130;51.728;8.748;2023-01-30T11:32:31;100118.47;;;5.05;100.00
34925;BME280;21130;51.728;8.748;2023-01-30T11:35:06;100117.00;;;5.09;100.00
34925;BME280;21130;51.728;8.748;2023-01-30T11:37:43;100117.16;;;5.14;100.00
34925;BME280;21130;51.728;8.748;2023-01-30T11:40:22;100125.44;;;5.14;100.00
34925;BME280;21130;51.728;8.748;2023-01-30T11:42:51;100102.19;;;5.04;100.00
34925;BME280;21130;51.728;8.748;2023-01-30T11:45:18;100114.28;;;4.96;100.00
34925;BME280;21130;51.728;8.748;2023-01-30T11:47:49;100120.00;;;4.94;100.00
34925;BME280;21130;51.728;8.748;2023-01-30T11:50:17;100107.53;;;4.92;100.00
34925;BME280;21130;51.728;8.748;2023-01-30T11:52:45;100115.09;;;4.96;100.00
34925;BME280;21130;51.728;8.748;2023-01-30T11:55:17;100094.63;;;4.92;100.00
34925;BME280;21130;51.728;8.748;2023-01-30T11:57:49;100103.06;;;4.97;100.00
34925;BME280;21130;51.728;8.748;2023-01-30T12:00:20;100111.69;;;5.08;100.00
34925;BME280;21130;51.728;8.748;2023-01-30T12:02:50;100109.13;;;5.13;100.00
34925;BME280;21130;51.728;8.748;2023-01-30T12:05:23;100102.19;;;5.04;100.00
34925;BME280;21130;51.728;8.748;2023-01-30T12:07:51;100104.66;;;5.18;100.00
34925;BME280;21130;51.728;8.748;2023-01-30T12:10:28;100094.97;;;5.48;100.00
34925;BME280;21130;51.728;8.748;2023-01-30T12:12:58;100106.72;;;5.61;100.00
34925;BME280;21130;51.728;8.748;2023-01-30T12:15:26;100098.84;;;5.33;100.00
34925;BME280;21130;51.728;8.748;2023-01-30T12:17:58;100108.91;;;5.53;100.00
34925;BME280;21130;51.728;8.748;2023-01-30T12:20:31;100104.31;;;5.72;100.00
34925;BME280;21130;51.728;8.748;2023-01-30T12:23:09;100091.31;;;5.54;100.00
34925;BME280;21130;51.728;8.748;2023-01-30T12:25:42;100084.81;;;5.73;100.00
34925;BME280;21130;51.728;8.748;2023-01-30T12:28:14;100082.81;;;5.87;100.00
34925;BME280;21130;51.728;8.748;2023-01-30T12:30:48;100088.72;;;5.91;100.00
34925;BME280;21130;51.728;8.748;2023-01-30T12:33:16;100075.06;;;5.77;100.00
34925;BME280;21130;51.728;8.748;2023-01-30T12:35:54;100093.44;;;5.83;100.00
34925;BME280;21130;51.728;8.748;2023-01-30T12:38:40;100090.22;;;5.87;100.00
34925;BME280;21130;51.728;8.748;2023-01-30T12:41:22;100076.03;;;5.90;100.00
34925;BME280;21130;51.728;8.748;2023-01-30T12:44:05;100096.97;;;5.91;100.00
34925;BME280;21130;51.728;8.748;2023-01-30T12:46:48;100107.97;;;5.97;100.00
34925;BME280;21130;51.728;8.748;2023-01-30T12:49:29;100089.81;;;6.15;100.00
34925;BME280;21130;51.728;8.748;2023-01-30T12:52:14;100087.38;;;6.25;100.00
34925;BME280;21130;51.728;8.748;2023-01-30T12:54:56;100086.31;;;6.01;100.00
34925;BME280;21130;51.728;8.748;2023-01-30T12:57:33;100050.97;;;5.98;100.00
34925;BME280;21130;51.728;8.748;2023-01-30T13:00:16;100096.28;;;6.02;100.00
34925;BME280;21130;51.728;8.748;2023-01-30T13:02:56;100107.81;;;5.85;100.00
34925;BME280;21130;51.728;8.748;2023-01-30T13:05:33;100101.41;;;5.98;100.00
34925;BME280;21130;51.728;8.748;2023-01-30T13:08:15;100094.00;;;5.92;100.00